sensor_id;sensor_type;location;lat;lon;timestamp;temperature;humidity
8953;DHT22;4511;50.890;8.054;2023-02-28T00:01:28;0.60;99.90
8953;DHT22;4511;50.890;8.054;2023-02-28T00:03:54;0.60;99.90
8953;DHT22;4511;50.890;8.054;2023-02-28T00:06:21;0.60;99.90
8953;DHT22;4511;50.890;8.054;2023-02-28T00:08:49;0.50;99.90
8953;DHT22;4511;50.890;8.054;2023-02-28T00:11:17;0.60;99.90
8953;DHT22;4511;50.890;8.054;2023-02-28T00:13:46;0.50;99.90
8953;DHT22;4511;50.890;8.054;2023-02-28T00:16:16;0.40;99.90
8953;DHT22;4511;50.890;8.054;2023-02-28T00:18:43;0.40;99.90
8953;DHT22;4511;50.890;8.054;2023-02-28T00:21:10;0.40;99.90
8953;DHT22;4511;50.890;8.054;2023-02-28T00:23:37;0.40;99.90
8953;DHT22;4511;50.890;8.054;2023-02-28T00:26:04;0.40;99.90
8953;DHT22;4511;50.890;8.054;2023-02-28T00:28:31;0.40;99.90
8953;DHT22;4511;50.890;8.054;2023-02-28T00:30:59;0.30;99.90
8953;DHT22;4511;50.890;8.054;2023-02-28T00:33:26;0.30;99.90
8953;DHT22;4511;50.890;8.054;2023-02-28T00:36:02;0.30;99.90
8953;DHT22;4511;50.890;8.054;2023-02-28T00:38:29;0.30;99.90
8953;DHT22;4511;50.890;8.054;2023-02-28T00:40:56;0.30;99.90
8953;DHT22;4511;50.890;8.054;2023-02-28T00:43:24;0.20;99.90
8953;DHT22;4511;50.890;8.054;2023-02-28T00:45:50;0.20;99.90
8953;DHT22;4511;50.890;8.054;2023-02-28T00:48:18;0.20;99.90
8953;DHT22;4511;50.890;8.054;2023-02-28T00:50:48;0.20;99.90
8953;DHT22;4511;50.890;8.054;2023-02-28T00:53:15;0.20;99.90
8953;DHT22;4511;50.890;8.054;2023-02-28T00:55:42;0.20;99.90
8953;DHT22;4511;50.890;8.054;2023-02-28T00:58:08;0.10;99.90
8953;DHT22;4511;50.890;8.054;2023-02-28T01:00:35;0.10;99.90
8953;DHT22;4511;50.890;8.054;2023-02-28T01:03:02;0.10;99.90
8953;DHT22;4511;50.890;8.054;2023-02-28T01:05:30;0.20;99.90
8953;DHT22;4511;50.890;8.054;2023-02-28T01:07:57;0.10;99.90
8953;DHT22;4511;50.890;8.054;2023-02-28T01:10:24;0.10;99.90
8953;DHT22;4511;50.890;8.054;2023-02-28T01:12:51;0.00;99.90
8953;DHT22;4511;50.890;8.054;2023-02-28T01:15:18;0.10;99.90
8953;DHT22;4511;50.890;8.054;2023-02-28T01:17:45;0.00;99.90
8953;DHT22;4511;50.890;8.054;2023-02-28T01:20:12;0.00;99.90
8953;DHT22;4511;50.890;8.054;2023-02-28T01:22:40;0.00;99.90
8953;DHT22;4511;50.890;8.054;2023-02-28T01:25:08;0.00;99.90
8953;DHT22;4511;50.890;8.054;2023-02-28T01:27:34;0.00;99.90
8953;DHT22;4511;50.890;8.054;2023-02-28T01:30:01;0.00;99.90
8953;DHT22;4511;50.890;8.054;2023-02-28T01:32:28;0.00;99.90
8953;DHT22;4511;50.890;8.054;2023-02-28T01:34:55;-0.10;99.90
8953;DHT22;4511;50.890;8.054;2023-02-28T01:37:23;-0.10;99.90
8953;DHT22;4511;50.890;8.054;2023-02-28T01:39:51;-0.10;99.90
8953;DHT22;4511;50.890;8.054;2023-02-28T01:42:18;-0.10;99.90
8953;DHT22;4511;50.890;8.054;2023-02-28T01:45:00;-0.10;99.90
8953;DHT22;4511;50.890;8.054;2023-02-28T01:47:30;-0.10;99.90
8953;DHT22;4511;50.890;8.054;2023-02-28T01:49:58;0.00;99.90
8953;DHT22;4511;50.890;8.054;2023-02-28T01:52:27;0.10;99.90
8953;DHT22;4511;50.890;8.054;2023-02-28T01:54:57;0.10;99.90
8953;DHT22;4511;50.890;8.054;2023-02-28T01:57:28;0.10;99.90
8953;DHT22;4511;50.890;8.054;2023-02-28T01:59:58;0.10;99.90
8953;DHT22;4511;50.890;8.054;2023-02-28T02:02:29;0.10;99.90
8953;DHT22;4511;50.890;8.054;2023-02-28T02:04:59;0.10;99.90
8953;DHT22;4511;50.890;8.054;2023-02-28T02:07:29;0.10;99.90
8953;DHT22;4511;50.890;8.054;2023-02-28T02:10:05;0.10;99.90
8953;DHT22;4511;50.890;8.054;2023-02-28T02:12:54;0.10;99.90
8953;DHT22;4511;50.890;8.054;2023-02-28T02:15:30;0.20;99.90
8953;DHT22;4511;50.890;8.054;2023-02-28T02:18:03;0.10;99.90
8953;DHT22;4511;50.890;8.054;2023-02-28T02:24:01;0.10;99.90
8953;DHT22;4511;50.890;8.054;2023-02-28T02:26:54;0.00;99.90
8953;DHT22;4511;50.890;8.054;2023-02-28T02:32:44;0.10;99.90
8953;DHT22;4511;50.890;8.054;2023-02-28T02:35:19;0.10;99.90
8953;DHT22;4511;50.890;8.054;2023-02-28T02:37:53;-0.10;99.90
8953;DHT22;4511;50.890;8.054;2023-02-28T02:40:23;0.00;99.90
8953;DHT22;4511;50.890;8.054;2023-02-28T02:42:56;-0.10;99.90
8953;DHT22;4511;50.890;8.054;2023-02-28T02:45:31;-0.10;99.90
8953;DHT22;4511;50.890;8.054;2023-02-28T02:48:02;-0.10;99.90
8953;DHT22;4511;50.890;8.054;2023-02-28T02:50:34;-0.10;99.90
8953;DHT22;4511;50.890;8.054;2023-02-28T02:53:03;-0.10;99.90
8953;DHT22;4511;50.890;8.054;2023-02-28T02:55:33;-0.10;99.90
8953;DHT22;4511;50.890;8.054;2023-02-28T02:58:04;-0.10;99.90
8953;DHT22;4511;50.890;8.054;2023-02-28T03:00:35;-0.10;99.90
8953;DHT22;4511;50.890;8.054;2023-02-28T03:03:04;-0.10;99.90
8953;DHT22;4511;50.890;8.054;2023-02-28T03:05:39;-0.10;99.90
8953;DHT22;4511;50.890;8.054;2023-02-28T03:08:08;-0.10;99.90
8953;DHT22;4511;50.890;8.054;2023-02-28T03:10:37;-0.10;99.90
8953;DHT22;4511;50.890;8.054;2023-02-28T03:16:28;-0.20;99.90
8953;DHT22;4511;50.890;8.054;2023-02-28T03:19:03;-0.10;99.90
8953;DHT22;4511;50.890;8.054;2023-02-28T03:21:38;-0.20;99.90
8953;DHT22;4511;50.890;8.054;2023-02-28T03:24:09;-0.20;99.90
8953;DHT22;4511;50.890;8.054;2023-02-28T03:26:40;-0.20;99.90
8953;DHT22;4511;50.890;8.054;2023-02-28T03:29:15;-0.40;99.90
8953;DHT22;4511;50.890;8.054;2023-02-28T03:31:46;-0.40;99.90
8953;DHT22;4511;50.890;8.054;2023-02-28T03:34:19;-0.40;99.90
8953;DHT22;4511;50.890;8.054;2023-02-28T03:36:53;-0.40;99.90
8953;DHT22;4511;50.890;8.054;2023-02-28T03:39:24;-0.40;99.90
8953;DHT22;4511;50.890;8.054;2023-02-28T03:41:56;-0.40;99.90
8953;DHT22;4511;50.890;8.054;2023-02-28T03:44:30;-0.50;99.90
8953;DHT22;4511;50.890;8.054;2023-02-28T03:47:02;-0.40;99.90
8953;DHT22;4511;50.890;8.054;2023-02-28T03:49:32;-0.40;99.90
8953;DHT22;4511;50.890;8.054;2023-02-28T03:52:03;-0.40;99.90
8953;DHT22;4511;50.890;8.054;2023-02-28T03:54:33;-0.40;99.90
8953;DHT22;4511;50.890;8.054;2023-02-28T03:57:05;-0.40;99.90
8953;DHT22;4511;50.890;8.054;2023-02-28T03:59:36;-0.40;99.90
8953;DHT22;4511;50.890;8.054;2023-02-28T04:02:04;-0.40;99.90
8953;DHT22;4511;50.890;8.054;2023-02-28T04:04:31;-0.40;99.90
8953;DHT22;4511;50.890;8.054;2023-02-28T04:07:04;-0.40;99.90
8953;DHT22;4511;50.890;8.054;2023-02-28T04:09:32;-0.40;99.90
8953;DHT22;4511;50.890;8.054;2023-02-28T04:11:59;-0.40;99.90
8953;DHT22;4511;50.890;8.054;2023-02-28T04:14:26;-0.40;99.90
8953;DHT22;4511;50.890;8.054;2023-02-28T04:16:52;-0.40;99.90
8953;DHT22;4511;50.890;8.054;2023-02-28T04:19:19;-0.40;99.90
8953;DHT22;4511;50.890;8.054;2023-02-28T04:21:48;-0.50;99.90
8953;DHT22;4511;50.890;8.054;2023-02-28T04:24:20;-0.50;99.90
8953;DHT22;4511;50.890;8.054;2023-02-28T04:26:48;-0.50;99.90
8953;DHT22;4511;50.890;8.054;2023-02-28T04:29:19;-0.50;99.90
8953;DHT22;4511;50.890;8.054;2023-02-28T04:31:46;-0.40;99.90
8953;DHT22;4511;50.890;8.054;2023-02-28T04:34:12;-0.40;99.90
8953;DHT22;4511;50.890;8.054;2023-02-28T04:36:39;-0.50;99.90
8953;DHT22;4511;50.890;8.054;2023-02-28T04:39:06;-0.50;99.90
8953;DHT22;4511;50.890;8.054;2023-02-28T04:41:34;-0.40;99.90
8953;DHT22;4511;50.890;8.054;2023-02-28T04:44:01;-0.50;99.90
8953;DHT22;4511;50.890;8.054;2023-02-28T04:46:28;-0.50;99.90
8953;DHT22;4511;50.890;8.054;2023-02-28T04:48:55;-0.50;99.90
8953;DHT22;4511;50.890;8.054;2023-02-28T04:51:23;-0.50;99.90
8953;DHT22;4511;50.890;8.054;2023-02-28T04:53:50;-0.50;99.90
8953;DHT22;4511;50.890;8.054;2023-02-28T04:56:17;-0.50;99.90
8953;DHT22;4511;50.890;8.054;2023-02-28T04:58:46;-0.60;99.90
8953;DHT22;4511;50.890;8.054;2023-02-28T05:01:19;-0.60;99.90
8953;DHT22;4511;50.890;8.054;2023-02-28T05:03:47;-0.60;99.90
8953;DHT22;4511;50.890;8.054;2023-02-28T05:06:14;-0.60;99.90
8953;DHT22;4511;50.890;8.054;2023-02-28T05:08:41;-0.60;99.90
8953;DHT22;4511;50.890;8.054;2023-02-28T05:11:17;-0.70;99.90
8953;DHT22;4511;50.890;8.054;2023-02-28T05:13:46;-0.70;99.90
8953;DHT22;4511;50.890;8.054;2023-02-28T05:16:13;-0.70;99.90
8953;DHT22;4511;50.890;8.054;2023-02-28T05:18:40;-0.70;99.90
8953;DHT22;4511;50.890;8.054;2023-02-28T05:21:26;-0.70;99.90
8953;DHT22;4511;50.890;8.054;2023-02-28T05:23:54;-0.70;99.90
8953;DHT22;4511;50.890;8.054;2023-02-28T05:26:21;-0.70;99.90
8953;DHT22;4511;50.890;8.054;2023-02-28T05:28:50;-0.80;99.90
8953;DHT22;4511;50.890;8.054;2023-02-28T05:31:16;-0.90;99.90
8953;DHT22;4511;50.890;8.054;2023-02-28T05:33:43;-0.90;99.90
8953;DHT22;4511;50.890;8.054;2023-02-28T05:36:10;-0.90;99.90
8953;DHT22;4511;50.890;8.054;2023-02-28T05:38:37;-0.80;99.90
8953;DHT22;4511;50.890;8.054;2023-02-28T05:41:07;-0.90;99.90
8953;DHT22;4511;50.890;8.054;2023-02-28T05:43:34;-0.90;99.90
8953;DHT22;4511;50.890;8.054;2023-02-28T05:46:04;-0.90;99.90
8953;DHT22;4511;50.890;8.054;2023-02-28T05:48:32;-1.00;99.90
8953;DHT22;4511;50.890;8.054;2023-02-28T05:50:59;-0.90;99.90
8953;DHT22;4511;50.890;8.054;2023-02-28T05:53:25;-0.90;99.90
8953;DHT22;4511;50.890;8.054;2023-02-28T05:55:52;-1.00;99.90
8953;DHT22;4511;50.890;8.054;2023-02-28T05:58:19;-0.90;99.90
8953;DHT22;4511;50.890;8.054;2023-02-28T06:00:46;-0.90;99.90
8953;DHT22;4511;50.890;8.054;2023-02-28T06:03:15;-0.60;99.90
8953;DHT22;4511;50.890;8.054;2023-02-28T06:05:42;-0.60;99.90
8953;DHT22;4511;50.890;8.054;2023-02-28T06:08:09;-0.60;99.90
8953;DHT22;4511;50.890;8.054;2023-02-28T06:10:36;-0.50;99.90
8953;DHT22;4511;50.890;8.054;2023-02-28T06:13:03;-0.50;99.90
8953;DHT22;4511;50.890;8.054;2023-02-28T06:15:30;-0.50;99.90
8953;DHT22;4511;50.890;8.054;2023-02-28T06:17:58;-0.50;99.90
8953;DHT22;4511;50.890;8.054;2023-02-28T06:20:27;-0.40;99.90
8953;DHT22;4511;50.890;8.054;2023-02-28T06:22:55;-0.40;99.90
8953;DHT22;4511;50.890;8.054;2023-02-28T06:25:24;-0.40;99.90
8953;DHT22;4511;50.890;8.054;2023-02-28T06:27:51;-0.40;99.90
8953;DHT22;4511;50.890;8.054;2023-02-28T06:30:18;-0.30;99.90
8953;DHT22;4511;50.890;8.054;2023-02-28T06:32:49;-0.30;99.90
8953;DHT22;4511;50.890;8.054;2023-02-28T06:35:16;-0.20;99.90
8953;DHT22;4511;50.890;8.054;2023-02-28T06:37:44;-0.20;99.90
8953;DHT22;4511;50.890;8.054;2023-02-28T06:40:12;-0.10;99.90
8953;DHT22;4511;50.890;8.054;2023-02-28T06:42:39;0.00;99.90
8953;DHT22;4511;50.890;8.054;2023-02-28T06:45:07;0.00;99.90
8953;DHT22;4511;50.890;8.054;2023-02-28T06:47:34;-0.10;99.90
8953;DHT22;4511;50.890;8.054;2023-02-28T06:50:01;-0.10;99.90
8953;DHT22;4511;50.890;8.054;2023-02-28T06:52:28;0.00;99.90
8953;DHT22;4511;50.890;8.054;2023-02-28T06:54:56;0.00;99.90
8953;DHT22;4511;50.890;8.054;2023-02-28T06:57:27;0.00;99.90
8953;DHT22;4511;50.890;8.054;2023-02-28T06:59:56;0.00;99.90
8953;DHT22;4511;50.890;8.054;2023-02-28T07:02:23;0.10;99.90
8953;DHT22;4511;50.890;8.054;2023-02-28T07:04:50;0.10;99.90
8953;DHT22;4511;50.890;8.054;2023-02-28T07:07:17;0.10;99.90
8953;DHT22;4511;50.890;8.054;2023-02-28T07:09:44;0.20;99.90
8953;DHT22;4511;50.890;8.054;2023-02-28T07:12:12;0.20;99.90
8953;DHT22;4511;50.890;8.054;2023-02-28T07:14:38;0.20;99.70
8953;DHT22;4511;50.890;8.054;2023-02-28T07:17:06;0.20;99.30
8953;DHT22;4511;50.890;8.054;2023-02-28T07:19:33;0.20;98.80
8953;DHT22;4511;50.890;8.054;2023-02-28T07:22:00;0.30;98.00
8953;DHT22;4511;50.890;8.054;2023-02-28T07:24:28;0.40;98.60
8953;DHT22;4511;50.890;8.054;2023-02-28T07:26:55;0.40;98.10
8953;DHT22;4511;50.890;8.054;2023-02-28T07:29:24;0.40;98.30
8953;DHT22;4511;50.890;8.054;2023-02-28T07:31:51;0.40;97.00
8953;DHT22;4511;50.890;8.054;2023-02-28T07:34:19;0.50;97.30
8953;DHT22;4511;50.890;8.054;2023-02-28T07:36:45;0.50;96.20
8953;DHT22;4511;50.890;8.054;2023-02-28T07:39:12;0.50;96.40
8953;DHT22;4511;50.890;8.054;2023-02-28T07:41:39;0.60;95.70
8953;DHT22;4511;50.890;8.054;2023-02-28T07:44:09;0.70;96.30
8953;DHT22;4511;50.890;8.054;2023-02-28T07:46:37;0.80;95.60
8953;DHT22;4511;50.890;8.054;2023-02-28T07:49:04;0.90;95.00
8953;DHT22;4511;50.890;8.054;2023-02-28T07:51:31;0.90;94.00
8953;DHT22;4511;50.890;8.054;2023-02-28T07:53:58;0.90;93.10
8953;DHT22;4511;50.890;8.054;2023-02-28T07:56:25;0.80;93.00
8953;DHT22;4511;50.890;8.054;2023-02-28T07:58:52;0.90;93.30
8953;DHT22;4511;50.890;8.054;2023-02-28T08:01:19;1.00;92.80
8953;DHT22;4511;50.890;8.054;2023-02-28T08:03:47;1.00;92.30
8953;DHT22;4511;50.890;8.054;2023-02-28T08:06:20;1.00;92.70
8953;DHT22;4511;50.890;8.054;2023-02-28T08:08:47;1.00;91.60
8953;DHT22;4511;50.890;8.054;2023-02-28T08:11:14;1.10;91.40
8953;DHT22;4511;50.890;8.054;2023-02-28T08:13:41;1.20;91.90
8953;DHT22;4511;50.890;8.054;2023-02-28T08:16:10;1.30;91.90
8953;DHT22;4511;50.890;8.054;2023-02-28T08:18:36;1.30;90.90
8953;DHT22;4511;50.890;8.054;2023-02-28T08:21:08;1.40;91.00
8953;DHT22;4511;50.890;8.054;2023-02-28T08:23:35;1.40;90.60
8953;DHT22;4511;50.890;8.054;2023-02-28T08:26:02;1.40;90.50
8953;DHT22;4511;50.890;8.054;2023-02-28T08:28:30;1.40;89.50
8953;DHT22;4511;50.890;8.054;2023-02-28T08:30:57;1.40;89.10
8953;DHT22;4511;50.890;8.054;2023-02-28T08:33:24;1.50;90.00
8953;DHT22;4511;50.890;8.054;2023-02-28T08:35:53;1.60;89.40
8953;DHT22;4511;50.890;8.054;2023-02-28T08:38:22;1.70;89.80
8953;DHT22;4511;50.890;8.054;2023-02-28T08:40:49;1.60;87.30
8953;DHT22;4511;50.890;8.054;2023-02-28T08:43:17;1.60;87.00
8953;DHT22;4511;50.890;8.054;2023-02-28T08:45:44;1.80;88.70
8953;DHT22;4511;50.890;8.054;2023-02-28T08:48:11;1.90;88.30
8953;DHT22;4511;50.890;8.054;2023-02-28T08:50:38;2.00;86.80
8953;DHT22;4511;50.890;8.054;2023-02-28T08:53:05;2.00;86.10
8953;DHT22;4511;50.890;8.054;2023-02-28T08:55:34;2.10;86.30
8953;DHT22;4511;50.890;8.054;2023-02-28T08:58:00;2.10;85.70
8953;DHT22;4511;50.890;8.054;2023-02-28T09:00:27;2.30;85.00
8953;DHT22;4511;50.890;8.054;2023-02-28T09:02:54;2.40;85.10
8953;DHT22;4511;50.890;8.054;2023-02-28T09:05:21;2.70;99.90
8953;DHT22;4511;50.890;8.054;2023-02-28T09:07:49;2.50;84.00
8953;DHT22;4511;50.890;8.054;2023-02-28T09:10:16;2.50;84.10
8953;DHT22;4511;50.890;8.054;2023-02-28T09:12:44;2.50;82.70
8953;DHT22;4511;50.890;8.054;2023-02-28T09:15:12;2.60;83.30
8953;DHT22;4511;50.890;8.054;2023-02-28T09:17:39;2.70;83.50
8953;DHT22;4511;50.890;8.054;2023-02-28T09:20:07;2.90;83.70
8953;DHT22;4511;50.890;8.054;2023-02-28T09:22:34;2.90;84.10
8953;DHT22;4511;50.890;8.054;2023-02-28T09:25:01;2.80;83.30
8953;DHT22;4511;50.890;8.054;2023-02-28T09:27:28;2.80;82.80
8953;DHT22;4511;50.890;8.054;2023-02-28T09:29:56;2.70;83.60
8953;DHT22;4511;50.890;8.054;2023-02-28T09:32:22;2.70;82.20
8953;DHT22;4511;50.890;8.054;2023-02-28T09:34:49;2.80;82.70
8953;DHT22;4511;50.890;8.054;2023-02-28T09:37:16;3.00;81.70
8953;DHT22;4511;50.890;8.054;2023-02-28T09:39:43;3.00;81.90
8953;DHT22;4511;50.890;8.054;2023-02-28T09:42:18;3.00;81.20
8953;DHT22;4511;50.890;8.054;2023-02-28T09:44:47;3.10;79.80
8953;DHT22;4511;50.890;8.054;2023-02-28T09:47:21;3.20;80.10
8953;DHT22;4511;50.890;8.054;2023-02-28T09:49:52;3.00;78.50
8953;DHT22;4511;50.890;8.054;2023-02-28T09:52:23;3.10;79.30
8953;DHT22;4511;50.890;8.054;2023-02-28T09:54:52;3.10;79.10
8953;DHT22;4511;50.890;8.054;2023-02-28T09:57:31;3.50;79.40
8953;DHT22;4511;50.890;8.054;2023-02-28T10:00:05;3.80;79.70
8953;DHT22;4511;50.890;8.054;2023-02-28T10:02:50;4.30;79.20
8953;DHT22;4511;50.890;8.054;2023-02-28T10:05:20;4.30;77.40
8953;DHT22;4511;50.890;8.054;2023-02-28T10:07:56;4.60;76.70
8953;DHT22;4511;50.890;8.054;2023-02-28T10:10:29;4.80;77.90
8953;DHT22;4511;50.890;8.054;2023-02-28T10:13:01;5.10;77.00
8953;DHT22;4511;50.890;8.054;2023-02-28T10:15:31;5.30;76.60
8953;DHT22;4511;50.890;8.054;2023-02-28T10:18:02;5.00;73.60
8953;DHT22;4511;50.890;8.054;2023-02-28T10:20:32;4.80;75.70
8953;DHT22;4511;50.890;8.054;2023-02-28T10:23:05;4.40;76.50
8953;DHT22;4511;50.890;8.054;2023-02-28T10:25:37;4.40;77.00
8953;DHT22;4511;50.890;8.054;2023-02-28T10:28:10;4.30;76.90
8953;DHT22;4511;50.890;8.054;2023-02-28T10:30:39;4.20;76.80
8953;DHT22;4511;50.890;8.054;2023-02-28T10:33:17;4.10;77.40
8953;DHT22;4511;50.890;8.054;2023-02-28T10:35:45;4.50;77.10
8953;DHT22;4511;50.890;8.054;2023-02-28T10:38:17;4.70;78.50
8953;DHT22;4511;50.890;8.054;2023-02-28T10:40:44;4.70;76.20
8953;DHT22;4511;50.890;8.054;2023-02-28T10:43:20;4.60;75.60
8953;DHT22;4511;50.890;8.054;2023-02-28T10:45:56;4.90;76.40
8953;DHT22;4511;50.890;8.054;2023-02-28T10:48:43;4.90;75.30
8953;DHT22;4511;50.890;8.054;2023-02-28T10:51:12;4.90;74.50
8953;DHT22;4511;50.890;8.054;2023-02-28T10:53:47;4.60;74.40
8953;DHT22;4511;50.890;8.054;2023-02-28T10:56:19;4.50;74.20
8953;DHT22;4511;50.890;8.054;2023-02-28T10:58:53;4.30;74.70
8953;DHT22;4511;50.890;8.054;2023-02-28T11:01:22;4.30;73.60
8953;DHT22;4511;50.890;8.054;2023-02-28T11:03:51;4.50;74.60
8953;DHT22;4511;50.890;8.054;2023-02-28T11:06:21;4.60;75.20
8953;DHT22;4511;50.890;8.054;2023-02-28T11:08:51;5.10;75.60
8953;DHT22;4511;50.890;8.054;2023-02-28T11:11:19;5.50;74.30
8953;DHT22;4511;50.890;8.054;2023-02-28T11:13:47;5.90;73.30
8953;DHT22;4511;50.890;8.054;2023-02-28T11:16:15;5.90;72.30
8953;DHT22;4511;50.890;8.054;2023-02-28T11:18:46;6.30;72.10
8953;DHT22;4511;50.890;8.054;2023-02-28T11:21:21;6.30;71.70
8953;DHT22;4511;50.890;8.054;2023-02-28T11:23:51;6.60;71.40
8953;DHT22;4511;50.890;8.054;2023-02-28T11:26:38;6.70;70.40
8953;DHT22;4511;50.890;8.054;2023-02-28T11:29:19;6.60;69.80
8953;DHT22;4511;50.890;8.054;2023-02-28T11:32:05;6.90;69.70
8953;DHT22;4511;50.890;8.054;2023-02-28T11:34:37;7.40;69.60
8953;DHT22;4511;50.890;8.054;2023-02-28T11:37:12;7.80;69.00
8953;DHT22;4511;50.890;8.054;2023-02-28T11:39:39;7.80;67.00
8953;DHT22;4511;50.890;8.054;2023-02-28T11:42:30;7.70;67.80
8953;DHT22;4511;50.890;8.054;2023-02-28T11:45:08;7.70;65.40
8953;DHT22;4511;50.890;8.054;2023-02-28T11:47:43;7.30;64.60
8953;DHT22;4511;50.890;8.054;2023-02-28T11:50:22;7.00;64.80
8953;DHT22;4511;50.890;8.054;2023-02-28T11:52:55;6.50;65.20
8953;DHT22;4511;50.890;8.054;2023-02-28T11:55:25;6.20;65.70
8953;DHT22;4511;50.890;8.054;2023-02-28T11:58:16;5.90;65.70
8953;DHT22;4511;50.890;8.054;2023-02-28T12:01:03;6.00;67.00
8953;DHT22;4511;50.890;8.054;2023-02-28T12:03:43;5.80;66.90
8953;DHT22;4511;50.890;8.054;2023-02-28T12:06:20;5.90;67.00
8953;DHT22;4511;50.890;8.054;2023-02-28T12:08:58;6.20;67.20
8953;DHT22;4511;50.890;8.054;2023-02-28T12:11:36;6.20;67.20
8953;DHT22;4511;50.890;8.054;2023-02-28T12:14:31;6.20;67.00
8953;DHT22;4511;50.890;8.054;2023-02-28T12:17:26;6.20;67.10
8953;DHT22;4511;50.890;8.054;2023-02-28T12:20:02;5.90;66.30
8953;DHT22;4511;50.890;8.054;2023-02-28T12:22:40;5.90;67.10
8953;DHT22;4511;50.890;8.054;2023-02-28T12:25:31;6.30;67.90
8953;DHT22;4511;50.890;8.054;2023-02-28T12:28:03;6.70;66.80
8953;DHT22;4511;50.890;8.054;2023-02-28T12:30:32;7.00;67.00
8953;DHT22;4511;50.890;8.054;2023-02-28T12:33:05;7.30;64.10
8953;DHT22;4511;50.890;8.054;2023-02-28T12:35:35;7.50;63.70
8953;DHT22;4511;50.890;8.054;2023-02-28T12:38:08;8.00;63.80
8953;DHT22;4511;50.890;8.054;2023-02-28T12:40:43;8.20;63.20
8953;DHT22;4511;50.890;8.054;2023-02-28T12:43:13;8.30;60.70
8953;DHT22;4511;50.890;8.054;2023-02-28T12:45:43;8.30;62.00
8953;DHT22;4511;50.890;8.054;2023-02-28T12:48:14;8.10;62.00
8953;DHT22;4511;50.890;8.054;2023-02-28T12:50:42;8.10;63.60
8953;DHT22;4511;50.890;8.054;2023-02-28T12:53:13;8.00;62.10
8953;DHT22;4511;50.890;8.054;2023-02-28T12:55:48;8.30;62.20
8953;DHT22;4511;50.890;8.054;2023-02-28T12:58:23;8.80;60.70
8953;DHT22;4511;50.890;8.054;2023-02-28T13:01:13;8.60;60.00
8953;DHT22;4511;50.890;8.054;2023-02-28T13:04:17;8.40;59.90
8953;DHT22;4511;50.890;8.054;2023-02-28T13:09:40;9.20;59.20
8953;DHT22;4511;50.890;8.054;2023-02-28T13:12:14;9.30;58.00
8953;DHT22;4511;50.890;8.054;2023-02-28T13:14:42;9.50;57.90
8953;DHT22;4511;50.890;8.054;2023-02-28T13:17:16;9.40;57.60
8953;DHT22;4511;50.890;8.054;2023-02-28T13:19:55;9.80;58.10
8953;DHT22;4511;50.890;8.054;2023-02-28T13:22:38;9.90;56.80
8953;DHT22;4511;50.890;8.054;2023-02-28T13:31:24;11.00;53.60
8953;DHT22;4511;50.890;8.054;2023-02-28T13:34:05;11.20;53.20
8953;DHT22;4511;50.890;8.054;2023-02-28T13:36:38;11.20;53.20
8953;DHT22;4511;50.890;8.054;2023-02-28T13:39:47;11.40;53.30
8953;DHT22;4511;50.890;8.054;2023-02-28T13:42:33;11.60;53.00
8953;DHT22;4511;50.890;8.054;2023-02-28T13:45:23;12.00;51.10
8953;DHT22;4511;50.890;8.054;2023-02-28T13:47:59;11.70;50.70
8953;DHT22;4511;50.890;8.054;2023-02-28T13:50:30;11.20;50.70
8953;DHT22;4511;50.890;8.054;2023-02-28T13:56:22;11.90;51.60
8953;DHT22;4511;50.890;8.054;2023-02-28T13:58:54;12.80;51.20
8953;DHT22;4511;50.890;8.054;2023-02-28T14:01:33;12.90;49.30
8953;DHT22;4511;50.890;8.054;2023-02-28T14:07:07;12.60;49.00
8953;DHT22;4511;50.890;8.054;2023-02-28T14:09:38;12.70;49.60
8953;DHT22;4511;50.890;8.054;2023-02-28T14:15:39;12.50;49.00
8953;DHT22;4511;50.890;8.054;2023-02-28T14:18:21;12.10;49.10
8953;DHT22;4511;50.890;8.054;2023-02-28T14:20:52;11.80;48.70
8953;DHT22;4511;50.890;8.054;2023-02-28T14:26:22;12.00;49.00
8953;DHT22;4511;50.890;8.054;2023-02-28T14:29:08;11.80;49.10
8953;DHT22;4511;50.890;8.054;2023-02-28T14:31:45;11.80;48.90
8953;DHT22;4511;50.890;8.054;2023-02-28T14:34:32;12.10;48.60
8953;DHT22;4511;50.890;8.054;2023-02-28T14:37:02;12.40;48.90
8953;DHT22;4511;50.890;8.054;2023-02-28T14:39:30;12.40;48.30
8953;DHT22;4511;50.890;8.054;2023-02-28T14:41:58;12.10;47.80
8953;DHT22;4511;50.890;8.054;2023-02-28T14:44:29;11.80;48.00
8953;DHT22;4511;50.890;8.054;2023-02-28T14:47:00;11.90;47.90
8953;DHT22;4511;50.890;8.054;2023-02-28T14:49:34;12.20;48.30
8953;DHT22;4511;50.890;8.054;2023-02-28T14:52:05;12.20;48.00
8953;DHT22;4511;50.890;8.054;2023-02-28T14:54:35;12.20;49.20
8953;DHT22;4511;50.890;8.054;2023-02-28T14:57:02;12.30;48.30
8953;DHT22;4511;50.890;8.054;2023-02-28T14:59:31;12.50;48.50
8953;DHT22;4511;50.890;8.054;2023-02-28T15:02:20;12.70;47.90
8953;DHT22;4511;50.890;8.054;2023-02-28T15:04:55;12.90;47.60
8953;DHT22;4511;50.890;8.054;2023-02-28T15:07:23;13.20;47.90
8953;DHT22;4511;50.890;8.054;2023-02-28T15:10:13;13.60;46.70
8953;DHT22;4511;50.890;8.054;2023-02-28T15:12:40;14.10;46.20
8953;DHT22;4511;50.890;8.054;2023-02-28T15:15:15;14.40;45.70
8953;DHT22;4511;50.890;8.054;2023-02-28T15:17:46;14.60;45.30
8953;DHT22;4511;50.890;8.054;2023-02-28T15:20:15;13.60;45.50
8953;DHT22;4511;50.890;8.054;2023-02-28T15:22:46;12.20;45.80
8953;DHT22;4511;50.890;8.054;2023-02-28T15:25:17;10.50;47.40
8953;DHT22;4511;50.890;8.054;2023-02-28T15:27:47;10.10;59.00
8953;DHT22;4511;50.890;8.054;2023-02-28T15:30:17;9.10;51.00
8953;DHT22;4511;50.890;8.054;2023-02-28T15:33:03;8.10;51.70
8953;DHT22;4511;50.890;8.054;2023-02-28T15:35:32;7.70;53.30
8953;DHT22;4511;50.890;8.054;2023-02-28T15:38:01;7.60;53.70
8953;DHT22;4511;50.890;8.054;2023-02-28T15:40:31;7.60;54.30
8953;DHT22;4511;50.890;8.054;2023-02-28T15:43:02;7.70;54.90
8953;DHT22;4511;50.890;8.054;2023-02-28T15:45:34;7.70;55.00
8953;DHT22;4511;50.890;8.054;2023-02-28T15:48:05;7.60;54.50
8953;DHT22;4511;50.890;8.054;2023-02-28T15:50:32;7.70;54.80
8953;DHT22;4511;50.890;8.054;2023-02-28T15:53:00;7.80;55.30
8953;DHT22;4511;50.890;8.054;2023-02-28T15:55:29;7.60;54.70
8953;DHT22;4511;50.890;8.054;2023-02-28T15:57:59;7.70;55.10
8953;DHT22;4511;50.890;8.054;2023-02-28T16:00:29;7.90;55.00
8953;DHT22;4511;50.890;8.054;2023-02-28T16:02:58;8.20;54.30
8953;DHT22;4511;50.890;8.054;2023-02-28T16:05:27;8.50;53.70
8953;DHT22;4511;50.890;8.054;2023-02-28T16:07:58;9.00;53.70
8953;DHT22;4511;50.890;8.054;2023-02-28T16:10:28;9.40;52.30
8953;DHT22;4511;50.890;8.054;2023-02-28T16:12:57;9.90;53.60
8953;DHT22;4511;50.890;8.054;2023-02-28T16:15:26;10.20;50.90
8953;DHT22;4511;50.890;8.054;2023-02-28T16:17:55;10.70;50.90
8953;DHT22;4511;50.890;8.054;2023-02-28T16:20:24;10.70;50.10
8953;DHT22;4511;50.890;8.054;2023-02-28T16:22:53;10.60;50.00
8953;DHT22;4511;50.890;8.054;2023-02-28T16:25:23;10.70;50.20
8953;DHT22;4511;50.890;8.054;2023-02-28T16:27:52;10.70;50.20
8953;DHT22;4511;50.890;8.054;2023-02-28T16:30:21;10.90;50.10
8953;DHT22;4511;50.890;8.054;2023-02-28T16:32:49;10.60;49.90
8953;DHT22;4511;50.890;8.054;2023-02-28T16:35:17;9.90;51.00
8953;DHT22;4511;50.890;8.054;2023-02-28T16:37:44;9.10;51.90
8953;DHT22;4511;50.890;8.054;2023-02-28T16:40:15;8.40;53.20
8953;DHT22;4511;50.890;8.054;2023-02-28T16:42:47;7.70;54.00
8953;DHT22;4511;50.890;8.054;2023-02-28T16:45:17;7.30;55.20
8953;DHT22;4511;50.890;8.054;2023-02-28T16:47:45;7.10;56.30
8953;DHT22;4511;50.890;8.054;2023-02-28T16:50:16;6.80;56.40
8953;DHT22;4511;50.890;8.054;2023-02-28T16:52:43;6.60;57.10
8953;DHT22;4511;50.890;8.054;2023-02-28T16:55:10;6.40;57.10
8953;DHT22;4511;50.890;8.054;2023-02-28T16:57:39;6.30;57.80
8953;DHT22;4511;50.890;8.054;2023-02-28T17:00:08;6.30;58.70
8953;DHT22;4511;50.890;8.054;2023-02-28T17:02:38;6.20;59.80
8953;DHT22;4511;50.890;8.054;2023-02-28T17:05:05;6.20;59.10
8953;DHT22;4511;50.890;8.054;2023-02-28T17:07:32;6.00;59.80